Time;durP1;ratioP1;P1;durP2;ratioP2;P2;SDS_P1;SDS_P2;PMS_P1;PMS_P2;Temp;Humidity;BMP_temperature;BMP_pressure;BME280_temperature;BME280_humidity;BME280_pressure;Samples;Min_cycle;Max_cycle;Signal;HPM_P1;HPM_P2
2021/12/13 05:45:22;;;;;;;38.33;19.95;;;;;;;1.88;99.70;100480.28;1681983;82;21161;-37
2021/12/13 05:48:00;;;;;;;34.18;21.07;;;;;;;1.96;99.64;100477.16;1678445;84;21564;-36
2021/12/13 05:50:38;;;;;;;32.00;18.05;;;;;;;2.02;99.37;100479.09;1662647;85;21097;-42
2021/12/13 05:53:09;;;;;;;30.52;17.70;;;;;;;2.03;98.97;100473.09;1657098;85;21037;-37
2021/12/13 05:55:59;;;;;;;32.80;18.20;;;;;;;2.02;98.98;100473.51;1677284;85;21057;-36
2021/12/13 05:58:58;;;;;;;33.30;19.07;;;;;;;2.05;98.95;100472.77;1674137;84;21046;-43
2021/12/13 06:01:33;;;;;;;24.18;15.50;;;;;;;2.06;98.73;100472.81;1660692;83;21646;-43
2021/12/13 06:04:20;;;;;;;33.83;17.05;;;;;;;2.06;97.94;100473.23;1673784;83;21055;-36
2021/12/13 06:06:51;;;;;;;30.72;17.70;;;;;;;2.02;97.89;100473.92;1674744;83;21113;-37
2021/12/13 06:09:46;;;;;;;28.17;17.73;;;;;;;2.01;98.02;100474.34;1673375;83;21043;-37
2021/12/13 06:12:32;;;;;;;27.98;17.05;;;;;;;2.00;98.12;100479.04;1658977;83;21554;-43
2021/12/13 06:43:05;;;;;;;33.40;15.20;;;;;;;2.26;97.78;100498.09;1668381;83;21670;-43
2021/12/13 06:46:59;;;;;;;24.90;15.28;;;;;;;2.35;97.40;100498.81;1694743;82;21131;-36
2021/12/13 06:49:50;;;;;;;26.35;15.00;;;;;;;2.30;96.90;100497.34;1697529;82;21556;-37
2021/12/13 06:52:38;;;;;;;24.95;16.23;;;;;;;2.31;96.99;100507.27;1696262;82;21014;-37
2021/12/13 06:55:18;;;;;;;33.25;18.05;;;;;;;2.31;97.01;100527.92;1693108;82;21669;-43
2021/12/13 06:58:00;;;;;;;29.72;16.10;;;;;;;2.35;97.21;100524.22;1695660;82;21576;-43
2021/12/13 07:01:04;;;;;;;29.35;17.02;;;;;;;2.38;96.81;100523.47;1694277;82;21562;-45
2021/12/13 07:04:02;;;;;;;31.50;18.62;;;;;;;2.30;96.32;100528.75;1698456;82;21017;-36
2021/12/13 07:07:42;;;;;;;35.05;19.07;;;;;;;2.24;96.56;100524.23;1699072;82;21047;-36
2021/12/13 07:10:43;;;;;;;34.30;19.75;;;;;;;2.20;96.96;100529.22;1699468;82;21670;-43
2021/12/13 07:13:35;;;;;;;34.10;19.48;;;;;;;2.20;97.50;100526.64;1701494;82;20971;-43
2021/12/13 07:17:30;;;;;;;41.90;20.65;;;;;;;2.23;97.90;100525.06;1699723;82;21054;-43
2021/12/13 07:37:36;;;;;;;34.65;19.12;;;;;;;2.27;98.25;100519.62;1635262;85;21105;-37
2021/12/13 07:45:34;;;;;;;34.73;19.42;;;;;;;2.27;97.58;100525.66;1635796;85;21579;-37
2021/12/13 07:56:28;;;;;;;37.60;21.65;;;;;;;2.22;98.09;100541.80;1634076;85;21562;-36
2021/12/13 08:00:15;;;;;;;36.00;19.42;;;;;;;2.19;97.98;100545.54;1693827;82;21133;-36
2021/12/13 08:04:18;;;;;;;39.92;20.57;;;;;;;2.15;98.16;100548.85;1700503;82;21533;-36
2021/12/13 08:32:40;;;;;;;30.10;18.32;;;;;;;2.18;99.25;100547.66;1611294;87;21145;-36
2021/12/13 08:44:34;;;;;;;32.67;19.73;;;;;;;2.19;98.93;100521.02;1691988;83;20984;-37
2021/12/13 09:00:05;;;;;;;35.55;19.15;;;;;;;2.23;99.15;100504.41;1666914;84;21643;-37
2021/12/13 09:07:39;;;;;;;33.02;17.85;;;;;;;2.43;99.39;100505.13;1662350;84;21132;-36
2021/12/13 09:36:17;;;;;;;31.20;16.80;;;;;;;2.80;97.66;100476.30;1669669;84;21538;-43
2021/12/13 09:39:41;;;;;;;28.25;16.62;;;;;;;2.83;97.27;100475.09;1664780;84;22083;-43
2021/12/13 09:47:07;;;;;;;21.10;13.60;;;;;;;2.83;97.27;100466.47;1672259;84;21053;-44
2021/12/13 09:50:01;;;;;;;28.60;18.15;;;;;;;2.86;97.36;100463.59;1680375;83;21054;-36
2021/12/13 09:54:00;;;;;;;21.40;14.15;;;;;;;2.97;97.45;100474.29;1674938;85;21049;-37
2021/12/13 10:01:42;;;;;;;29.27;15.25;;;;;;;2.99;96.55;100472.62;1639975;85;21141;-43
2021/12/13 10:05:15;;;;;;;25.90;15.72;;;;;;;2.96;96.29;100480.67;1601672;88;21906;-36
2021/12/13 10:26:12;;;;;;;21.87;13.83;;;;;;;2.91;96.46;100475.38;1726393;81;21051;-43
2021/12/13 10:34:41;;;;;;;20.50;12.88;;;;;;;2.93;96.27;100465.55;1718411;81;21453;-45
2021/12/13 10:46:13;;;;;;;25.00;13.45;;;;;;;3.02;95.78;100464.11;1725401;81;21085;-42
2021/12/13 10:49:39;;;;;;;17.65;12.05;;;;;;;2.96;96.26;100454.45;1710976;81;21042;-37
2021/12/13 10:52:39;;;;;;;20.23;12.30;;;;;;;2.99;95.84;100454.53;1714144;81;21945;-45
2021/12/13 10:56:09;;;;;;;19.92;11.83;;;;;;;3.00;95.76;100449.81;1716630;81;21714;-37
2021/12/13 10:59:16;;;;;;;18.73;11.78;;;;;;;3.01;95.32;100439.06;1719569;81;20999;-44
2021/12/13 11:03:10;;;;;;;18.07;11.57;;;;;;;3.00;95.38;100438.19;1716643;81;21044;-44
2021/12/13 11:15:25;;;;;;;19.20;13.08;;;;;;;3.13;95.41;100436.87;1729317;81;21108;-38
2021/12/13 11:18:59;;;;;;;20.17;12.90;;;;;;;3.14;95.27;100433.06;1724574;81;21604;-43
2021/12/13 11:23:18;;;;;;;18.45;11.97;;;;;;;3.17;95.68;100437.02;1721112;81;21064;-44
2021/12/13 11:31:22;;;;;;;18.87;12.63;;;;;;;3.25;95.02;100433.41;1717419;81;21064;-45
2021/12/13 11:34:55;;;;;;;;;;;;;;;3.22;94.53;100435.01;1724469;81;21464;-38
2021/12/13 11:37:53;;;;;;;22.13;13.45;;;;;;;3.13;94.17;100436.48;1709878;81;20639;-38
2021/12/13 11:41:20;;;;;;;19.82;12.58;;;;;;;3.15;94.54;100435.23;1709453;81;21066;-38
2021/12/13 11:49:05;;;;;;;20.05;14.05;;;;;;;3.19;94.53;100422.45;1718561;81;21132;-38
2021/12/13 11:52:39;;;;;;;20.85;13.28;;;;;;;3.25;94.60;100415.31;1727894;81;21433;-45
2021/12/13 11:55:47;;;;;;;20.08;13.22;;;;;;;3.32;94.37;100411.20;1702064;81;21579;-46
2021/12/13 11:59:12;;;;;;;21.00;14.73;;;;;;;3.33;93.99;100423.30;1715663;81;20961;-45
2021/12/13 12:02:21;;;;;;;22.17;14.40;;;;;;;3.35;93.80;100434.14;1714251;81;21083;-46
2021/12/13 12:05:44;;;;;;;25.12;16.30;;;;;;;3.31;93.44;100431.02;1715655;81;21017;-38
2021/12/13 12:09:26;;;;;;;25.70;15.15;;;;;;;3.30;93.50;100438.70;1714918;81;21008;-37
2021/12/13 12:13:00;;;;;;;24.90;15.50;;;;;;;3.26;93.39;100434.28;1705407;81;21110;-38
2021/12/13 12:20:38;;;;;;;29.18;17.23;;;;;;;3.16;93.20;100437.86;1684749;83;21093;-39
2021/12/13 12:24:05;;;;;;;26.12;16.20;;;;;;;3.08;93.80;100441.05;1689370;83;21580;-38
2021/12/13 12:26:38;;;;;;;25.80;16.73;;;;;;;3.09;94.22;100435.91;1675738;84;21575;-45
2021/12/13 12:29:20;;;;;;;22.22;15.32;;;;;;;3.16;94.18;100445.61;1656805;84;21069;-45
2021/12/13 12:32:01;;;;;;;24.07;15.32;;;;;;;3.14;93.90;100438.23;1673883;84;21041;-44
2021/12/13 12:34:28;;;;;;;26.52;15.72;;;;;;;3.12;94.13;100442.88;1683504;83;20985;-45
2021/12/13 12:37:21;;;;;;;26.85;15.20;;;;;;;3.12;94.23;100439.00;1665700;83;21009;-43
2021/12/13 12:40:18;;;;;;;20.97;13.83;;;;;;;3.14;94.28;100436.94;1650303;85;21007;-46
2021/12/13 12:42:50;;;;;;;20.25;14.05;;;;;;;3.18;93.93;100434.02;1673925;83;20995;-44
2021/12/13 12:45:45;;;;;;;22.67;14.13;;;;;;;3.19;93.79;100432.80;1667918;83;21558;-44
2021/12/13 12:48:33;;;;;;;20.40;14.43;;;;;;;3.23;93.49;100441.93;1675390;83;20991;-45
2021/12/13 12:51:20;;;;;;;26.00;14.93;;;;;;;3.22;93.11;100443.64;1671652;83;21142;-44
2021/12/13 12:54:28;;;;;;;22.65;14.40;;;;;;;3.23;93.15;100446.69;1654308;85;21138;-45
2021/12/13 12:57:02;;;;;;;21.35;14.60;;;;;;;3.29;93.38;100447.30;1663160;83;21053;-44
2021/12/13 12:59:38;;;;;;;24.25;15.45;;;;;;;3.39;93.08;100453.23;1671499;83;21080;-38
2021/12/13 13:02:15;;;;;;;21.30;14.07;;;;;;;3.43;92.99;100457.26;1667188;83;21114;-38
2021/12/13 13:05:03;;;;;;;21.68;13.45;;;;;;;3.43;92.84;100456.38;1668897;83;21660;-38
2021/12/13 13:08:31;;;;;;;22.77;14.55;;;;;;;3.43;92.56;100461.55;1678004;83;21065;-39
2021/12/13 13:12:16;;;;;;;23.05;14.23;;;;;;;3.39;92.43;100458.40;1667688;83;21419;-38
2021/12/13 13:16:09;;;;;;;22.07;14.98;;;;;;;3.38;92.48;100459.23;1664031;83;22109;-38
2021/12/13 13:18:42;;;;;;;24.27;15.88;;;;;;;3.36;92.16;100458.28;1684601;81;21421;-38
2021/12/13 13:21:10;;;;;;;28.07;17.57;;;;;;;3.34;92.26;100457.37;1735057;81;22558;-35
2021/12/13 13:23:50;;;;;;;24.65;15.35;;;;;;;3.34;92.21;100462.12;1714260;81;21040;-42
2021/12/13 13:26:34;;;;;;;26.35;16.00;;;;;;;3.32;91.93;100460.34;1716311;81;21840;-35
2021/12/13 13:29:14;;;;;;;28.40;17.23;;;;;;;3.25;91.97;100457.06;1728865;81;20993;-37
2021/12/13 13:32:04;;;;;;;27.13;16.45;;;;;;;3.24;92.16;100465.24;1657930;84;21146;-36
2021/12/13 13:34:39;;;;;;;31.02;18.25;;;;;;;3.28;92.46;100459.77;1644658;84;21056;-37
2021/12/13 13:37:16;;;;;;;35.05;20.35;;;;;;;3.27;92.01;100464.06;1686001;84;20999;-36
2021/12/13 13:39:46;;;;;;;39.35;20.02;;;;;;;3.26;92.15;100470.48;1680266;83;21027;-36
2021/12/13 13:42:21;;;;;;;32.67;20.17;;;;;;;3.23;91.86;100470.38;1715682;81;21004;-36
2021/12/13 13:45:08;;;;;;;30.12;18.80;;;;;;;3.20;91.82;100465.58;1719517;81;21063;-39
2021/12/13 13:47:39;;;;;;;33.83;20.35;;;;;;;3.18;91.79;100475.39;1648222;85;21619;-36
2021/12/13 13:50:29;;;;;;;35.88;20.50;;;;;;;3.13;91.95;100477.85;1640109;85;21756;-45
2021/12/13 13:53:03;;;;;;;38.35;20.68;;;;;;;3.14;92.23;100486.48;1641208;85;21052;-44
2021/12/13 13:55:38;;;;;;;42.27;23.62;;;;;;;3.13;92.56;100486.91;1655797;85;21143;-37
2021/12/13 13:58:12;;;;;;;43.73;23.85;;;;;;;3.14;92.62;100486.48;1633519;86;21061;-44
2021/12/13 14:00:53;;;;;;;44.30;24.50;;;;;;;3.15;92.66;100491.70;1639504;86;21580;-44
2021/12/13 14:03:40;;;;;;;39.38;24.25;;;;;;;3.14;92.70;100489.95;1640816;86;21005;-36
2021/12/13 14:06:10;;;;;;;44.23;25.02;;;;;;;3.12;92.41;100492.00;1648610;86;21463;-36
2021/12/13 14:08:38;;;;;;;46.75;24.35;;;;;;;3.08;92.58;100492.75;1634613;86;21207;-36
2021/12/13 14:11:12;;;;;;;46.50;26.25;;;;;;;3.06;92.62;100499.13;1639323;86;21143;-36
2021/12/13 14:13:40;;;;;;;45.08;24.98;;;;;;;3.00;92.41;100495.47;1617703;87;21659;-36
2021/12/13 14:16:23;;;;;;;48.63;26.15;;;;;;;2.89;92.43;100500.27;1614241;87;21654;-36
2021/12/13 14:18:50;;;;;;;52.25;26.95;;;;;;;2.81;92.74;100510.77;1633234;86;21638;-38
2021/12/13 14:21:21;;;;;;;50.58;28.07;;;;;;;2.74;93.30;100508.81;1640405;86;21721;-36
2021/12/13 14:23:49;;;;;;;55.88;30.70;;;;;;;2.71;93.56;100511.27;1667678;81;20993;-42
